Главная страница
METAR-TAF:

METAR-TAF

Аэропорты :

Al Jawf, Саудовская Аравия

широта: 29-47N, долгота: 040-06E, высота над уровнем моря: 689 м

Текущие метеонаблюдения

Эта сводка был подготовлена 39 минут назад, в 09:00 UTC
Ветер 7 Узел от западный
Температура 39°C
Влажность 12%
Давление 1013 hPa
Видимость 10 км и более
Нет облачности ниже 1500 м, и нет кучево-дождевой облачности

METAR: OESK 070900Z 27007KT CAVOK 39/04 Q1013

Время: 12:39 (09:39 UTC)

Прогноз

Эта сводка был подготовлена 22 часа и 39 минут назад, в 11:00 UTC
Прогноз действительный с 06-го 12 UTC до 07-го 18 UTC
Ветер 16 Узел от южный
Видимость: 7000 м
временами
С 06-го 12 UTC до 06-го 20 UTC
Видимость: 4000 м
Низовая пыльная метель
изменения
С 06-го 20 UTC до 06-го 22 UTC
Ветер 3 Узел переменных направлений

TAF: OESK 061100Z 0612/0718 18016KT 7000 NSC TEMPO 0612/0620 4000 BLDU BECMG 0620/0622 VRB03KT

Метеонаблюдения и прогнозы для более 4000 аэропортов (сводки METAR и TAF).

Имеющиеся станции представлены на карте желтыми и красными точками.

Чтобы увидеть название станции, наведите на нее мышь.

Затем щелкните, чтобы увидеть метеонаблюдения и метеопрогнозы.

Управление картой: чтобы увеличить масштаб, щелкните зеленые кнопки с черным крестиком; чтобы уменьшить масштаб, щелкните зеленую кнопку с тире; для просмотра соседних карт щелкайте зеленые стрелки.


METAR-TAF: